Date,TemperatureHighF,TemperatureAvgF,TemperatureLowF,DewpointHighF,DewpointAvgF,DewpointLowF,HumidityHigh,HumidityAvg,HumidityLow,PressureMaxIn,PressureMinIn,WindSpeedMaxMPH,WindSpeedAvgMPH,GustSpeedMaxMPH,PrecipitationSumIn
2013-1-1,26,9,0,7,-3,-9,87,61,27,0.00,40.00,3,2,7,0.00
2013-1-2,25,9,-1,1,-6,-11,71,52,29,0.00,40.00,5,2,10,0.00
2013-1-3,26,9,-3,-4,-9,-14,59,44,23,0.00,40.00,3,2,4,0.00
2013-1-4,44,22,9,8,2,-6,63,43,22,0.00,40.00,3,2,4,0.03
2013-1-5,41,24,11,4,-1,-5,48,35,17,0.00,40.00,3,2,5,0.01
2013-1-6,40,23,11,5,-1,-8,49,36,17,0.00,40.00,3,2,4,0.00
2013-1-7,42,25,14,6,1,-4,53,37,19,0.00,40.00,3,2,11,0.00
2013-1-8,43,30,21,14,4,-13,59,36,13,0.00,40.00,6,3,12,0.00
2013-1-9,43,28,17,13,7,3,59,43,25,0.00,40.00,3,2,4,0.00
2013-1-10,36,26,19,9,6,3,59,42,25,0.00,40.00,3,2,12,0.00
2013-1-11,21,15,2,18,1,-14,90,55,26,0.00,40.00,5,3,17,0.00
2013-1-12,16,3,-8,-8,-16,-20,62,41,20,0.00,40.00,6,2,12,0.00
2013-1-13,8,-2,-10,-4,-13,-20,72,58,39,0.00,40.00,2,2,4,0.00
2013-1-14,10,-1,-8,-5,-12,-17,74,60,38,0.00,40.00,3,2,9,0.00
2013-1-15,29,10,-7,7,-7,-21,65,47,31,0.00,40.00,6,3,17,0.00
2013-1-16,43,25,12,17,11,4,72,56,35,0.00,40.00,3,2,5,0.00
2013-1-17,43,25,14,15,11,8,78,58,27,0.00,40.00,3,2,5,0.00
2013-1-18,44,28,16,9,2,-6,68,37,16,0.00,40.00,4,2,11,0.00
2013-1-19,48,30,17,8,0,-3,42,29,16,0.00,40.00,3,2,11,0.00
2013-1-20,44,31,19,2,-3,-10,42,24,13,0.00,40.00,5,2,9,0.00
2013-1-21,47,30,17,7,2,-3,50,32,17,0.00,40.00,5,3,10,0.00
2013-1-22,52,37,21,-1,-8,-16,34,15,6,0.00,40.00,7,3,14,0.00
2013-1-23,56,38,23,-3,-8,-15,30,15,6,0.00,40.00,8,3,16,0.00
2013-1-24,49,41,33,24,9,-9,60,31,10,0.00,40.00,8,4,18,0.00
2013-1-25,46,37,29,26,24,22,78,61,44,0.00,40.00,7,3,13,0.00
2013-1-26,43,34,28,32,25,18,99,71,45,0.00,40.00,4,2,16,0.00
2013-1-27,45,36,27,31,23,17,99,64,32,0.00,40.00,6,3,19,0.14
2013-1-28,36,27,18,30,21,10,97,77,57,0.00,40.00,7,2,12,0.01
2013-1-29,24,15,2,15,-5,-17,83,45,18,0.00,40.00,5,3,10,0.01
2013-1-30,32,17,2,8,-1,-16,60,44,28,0.00,40.00,9,5,16,0.00
2013-1-31,37,30,23,11,8,2,48,39,31,0.00,40.00,9,6,23,0.00